Time,TemperatureF,DewpointF,PressureIn,WindDirection,WindDirectionDegrees,WindSpeedMPH,WindSpeedGustMPH,Humidity,HourlyPrecipIn,Conditions,Clouds,dailyrainin,SolarRadiationWatts/m^2,SoftwareType,DateUTC
2013-02-05 00:01:00,45.0,45.0,-100.00,SSW,196,1.0,2.0,99,0.00,,,0.00,0.000000,,2013-02-05 08:01:00,
2013-02-05 00:11:00,45.0,45.0,-100.00,SSW,196,1.0,2.0,99,0.00,,,0.00,0.000000,,2013-02-05 08:11:00,
2013-02-05 00:42:00,45.0,45.0,-100.00,NNE,19,0.0,2.0,100,0.00,,,0.00,0.000000,,2013-02-05 08:42:00,
2013-02-05 00:52:00,45.0,45.0,-100.00,NNE,19,0.0,2.0,100,0.00,,,0.00,0.000000,,2013-02-05 08:52:00,
2013-02-05 01:02:00,45.0,45.0,-100.00,NNE,19,0.0,2.0,100,0.00,,,0.00,0.000000,,2013-02-05 09:02:00,
2013-02-05 01:11:00,45.0,45.0,-100.00,NNE,19,0.0,2.0,100,0.00,,,0.00,0.000000,,2013-02-05 09:11:00,
2013-02-05 01:42:00,46.0,46.0,-100.00,North,11,3.0,4.0,100,0.00,,,0.00,0.000000,,2013-02-05 09:42:00,
2013-02-05 01:52:00,46.0,46.0,-100.00,North,11,3.0,4.0,100,0.00,,,0.00,0.000000,,2013-02-05 09:52:00,
2013-02-05 02:01:00,46.0,46.0,-100.00,North,11,3.0,4.0,100,0.00,,,0.00,0.000000,,2013-02-05 10:01:00,
2013-02-05 02:11:00,46.0,46.0,-100.00,North,11,3.0,4.0,100,0.00,,,0.00,0.000000,,2013-02-05 10:11:00,
2013-02-05 02:32:00,46.0,46.0,-100.00,West,281,1.0,4.0,100,0.00,,,0.00,0.000000,,2013-02-05 10:32:00,
2013-02-05 02:42:00,46.0,46.0,-100.00,West,281,1.0,4.0,100,0.00,,,0.00,0.000000,,2013-02-05 10:42:00,
2013-02-05 02:52:00,46.0,46.0,-100.00,West,281,1.0,4.0,100,0.00,,,0.00,0.000000,,2013-02-05 10:52:00,
2013-02-05 03:01:00,46.0,46.0,-100.00,West,281,1.0,4.0,100,0.00,,,0.00,0.000000,,2013-02-05 11:01:00,
2013-02-05 03:11:00,46.0,46.0,-100.00,West,281,1.0,4.0,100,0.00,,,0.00,0.000000,,2013-02-05 11:11:00,
2013-02-05 03:32:00,46.0,46.0,-100.00,South,172,5.0,6.0,100,0.00,,,0.00,0.000000,,2013-02-05 11:32:00,
2013-02-05 03:42:00,46.0,46.0,-100.00,South,172,5.0,6.0,100,0.00,,,0.00,0.000000,,2013-02-05 11:42:00,
2013-02-05 03:52:00,46.0,46.0,-100.00,South,172,5.0,6.0,100,0.00,,,0.00,0.000000,,2013-02-05 11:52:00,
2013-02-05 04:01:00,46.0,46.0,-100.00,South,172,5.0,6.0,100,0.00,,,0.00,0.000000,,2013-02-05 12:01:00,
2013-02-05 04:12:00,46.0,46.0,-100.00,South,172,5.0,6.0,100,0.00,,,0.00,0.000000,,2013-02-05 12:12:00,
2013-02-05 04:32:00,46.0,46.0,-100.00,SSE,164,5.0,6.0,100,0.00,,,0.00,0.000000,,2013-02-05 12:32:00,
2013-02-05 04:42:00,46.0,46.0,-100.00,SSE,164,5.0,6.0,100,0.00,,,0.00,0.000000,,2013-02-05 12:42:00,
2013-02-05 04:52:00,46.0,46.0,-100.00,SSE,164,5.0,6.0,100,0.00,,,0.00,0.000000,,2013-02-05 12:52:00,
2013-02-05 05:01:00,46.0,46.0,-100.00,SSE,164,5.0,6.0,100,0.00,,,0.00,0.000000,,2013-02-05 13:01:00,
2013-02-05 05:11:00,46.0,46.0,-100.00,SSE,164,5.0,6.0,100,0.00,,,0.00,0.000000,,2013-02-05 13:11:00,
2013-02-05 05:32:00,46.0,46.0,-100.00,North,349,2.0,3.0,100,0.00,,,0.00,0.000000,,2013-02-05 13:32:00,
2013-02-05 05:42:00,46.0,46.0,-100.00,North,349,2.0,3.0,100,0.00,,,0.00,0.000000,,2013-02-05 13:42:00,
2013-02-05 05:52:00,46.0,46.0,-100.00,North,349,2.0,3.0,100,0.00,,,0.00,0.000000,,2013-02-05 13:52:00,
2013-02-05 06:01:00,46.0,46.0,-100.00,North,349,2.0,3.0,100,0.00,,,0.00,0.000000,,2013-02-05 14:01:00,
2013-02-05 06:12:00,46.0,46.0,-100.00,North,349,2.0,3.0,100,0.00,,,0.00,0.000000,,2013-02-05 14:12:00,
2013-02-05 06:42:00,46.0,46.0,-100.00,WSW,256,3.0,4.0,100,0.00,,,0.00,0.000000,,2013-02-05 14:42:00,
2013-02-05 06:52:00,46.0,46.0,-100.00,WSW,256,3.0,4.0,100,0.00,,,0.00,0.000000,,2013-02-05 14:52:00,
2013-02-05 07:01:00,46.0,46.0,-100.00,WSW,256,3.0,4.0,100,0.00,,,0.00,0.000000,,2013-02-05 15:01:00,
2013-02-05 07:11:00,46.0,46.0,-100.00,WSW,256,3.0,4.0,100,0.00,,,0.00,0.000000,,2013-02-05 15:11:00,
2013-02-05 07:32:00,46.0,46.0,-100.00,West,277,2.0,4.0,100,0.00,,,0.00,0.000000,,2013-02-05 15:32:00,
2013-02-05 07:42:00,46.0,46.0,-100.00,West,277,2.0,4.0,100,0.00,,,0.00,0.000000,,2013-02-05 15:42:00,
2013-02-05 07:52:00,46.0,46.0,-100.00,West,277,2.0,4.0,100,0.00,,,0.00,0.000000,,2013-02-05 15:52:00,
2013-02-05 08:01:00,46.0,46.0,-100.00,West,277,2.0,4.0,100,0.00,,,0.00,0.000000,,2013-02-05 16:01:00,
2013-02-05 08:11:00,46.0,46.0,-100.00,West,277,2.0,4.0,100,0.00,,,0.00,0.000000,,2013-02-05 16:11:00,
2013-02-05 08:33:00,46.0,46.0,-100.00,NW,308,4.0,6.0,100,0.00,,,-99.99,11.000000,,2013-02-05 16:33:00,
2013-02-05 08:42:00,46.0,46.0,-100.00,NW,308,4.0,6.0,100,0.00,,,-99.99,11.000000,,2013-02-05 16:42:00,
2013-02-05 08:52:00,46.0,46.0,-100.00,NW,308,4.0,6.0,100,0.00,,,-99.99,11.000000,,2013-02-05 16:52:00,
2013-02-05 09:01:00,46.0,46.0,-100.00,NW,308,4.0,6.0,100,0.00,,,-99.99,11.000000,,2013-02-05 17:01:00,
2013-02-05 09:11:00,46.0,46.0,-100.00,NW,308,4.0,6.0,100,0.00,,,-99.99,11.000000,,2013-02-05 17:11:00,
2013-02-05 09:32:00,46.0,46.0,-100.00,North,351,6.0,9.0,100,0.00,,,0.00,37.000000,,2013-02-05 17:32:00,
2013-02-05 09:42:00,46.0,46.0,-100.00,North,351,6.0,9.0,100,0.00,,,0.00,37.000000,,2013-02-05 17:42:00,
2013-02-05 09:52:00,46.0,46.0,-100.00,North,351,6.0,9.0,100,0.00,,,0.00,37.000000,,2013-02-05 17:52:00,
2013-02-05 10:01:00,46.0,46.0,-100.00,North,351,6.0,9.0,100,0.00,,,0.00,37.000000,,2013-02-05 18:01:00,
2013-02-05 10:11:00,46.0,46.0,-100.00,North,351,6.0,9.0,100,0.00,,,0.00,37.000000,,2013-02-05 18:11:00,
2013-02-05 10:32:00,47.0,47.0,-100.00,NNW,328,3.0,4.0,100,0.00,,,0.00,52.000000,,2013-02-05 18:32:00,
2013-02-05 10:42:00,47.0,47.0,-100.00,NNW,328,3.0,4.0,100,0.00,,,0.00,52.000000,,2013-02-05 18:42:00,
2013-02-05 10:52:00,47.0,47.0,-100.00,NNW,328,3.0,4.0,100,0.00,,,0.00,52.000000,,2013-02-05 18:52:00,
2013-02-05 11:02:00,47.0,47.0,-100.00,NNW,328,3.0,4.0,100,0.00,,,0.00,52.000000,,2013-02-05 19:02:00,
2013-02-05 11:11:00,47.0,47.0,-100.00,NNW,328,3.0,4.0,100,0.00,,,0.00,52.000000,,2013-02-05 19:11:00,
2013-02-05 11:42:00,47.0,46.0,-100.00,NNE,21,4.0,5.0,96,0.00,,,0.00,83.000000,,2013-02-05 19:42:00,
2013-02-05 11:52:00,47.0,46.0,-100.00,NNE,21,4.0,5.0,96,0.00,,,0.00,83.000000,,2013-02-05 19:52:00,
2013-02-05 12:01:00,47.0,46.0,-100.00,NNE,21,4.0,5.0,96,0.00,,,0.00,83.000000,,2013-02-05 20:01:00,
2013-02-05 12:11:00,47.0,46.0,-100.00,NNE,21,4.0,5.0,96,0.00,,,0.00,83.000000,,2013-02-05 20:11:00,
2013-02-05 12:32:00,48.0,46.0,-100.00,NNW,344,6.0,7.0,92,0.00,,,-99.99,100.000000,,2013-02-05 20:32:00,
2013-02-05 12:42:00,48.0,46.0,-100.00,NNW,344,6.0,7.0,92,0.00,,,-99.99,100.000000,,2013-02-05 20:42:00,
2013-02-05 12:52:00,48.0,46.0,-100.00,NNW,344,6.0,7.0,92,0.00,,,-99.99,100.000000,,2013-02-05 20:52:00,
2013-02-05 13:01:00,48.0,46.0,-100.00,NNW,344,6.0,7.0,92,0.00,,,-99.99,100.000000,,2013-02-05 21:01:00,
2013-02-05 13:11:00,48.0,46.0,-100.00,NNW,344,6.0,7.0,92,0.00,,,-99.99,100.000000,,2013-02-05 21:11:00,
2013-02-05 13:42:00,50.0,45.0,-100.00,NW,325,2.0,2.0,83,0.00,,,0.00,183.000000,,2013-02-05 21:42:00,
2013-02-05 13:52:00,50.0,45.0,-100.00,NW,325,2.0,2.0,83,0.00,,,0.00,183.000000,,2013-02-05 21:52:00,
2013-02-05 14:01:00,50.0,45.0,-100.00,NW,325,2.0,2.0,83,0.00,,,0.00,183.000000,,2013-02-05 22:01:00,
2013-02-05 14:11:00,50.0,45.0,-100.00,NW,325,2.0,2.0,83,0.00,,,0.00,183.000000,,2013-02-05 22:11:00,
2013-02-05 14:32:00,50.0,45.0,-100.00,South,191,5.0,7.0,83,0.00,,,0.00,322.000000,,2013-02-05 22:32:00,
2013-02-05 14:42:00,50.0,45.0,-100.00,South,191,5.0,7.0,83,0.00,,,0.00,322.000000,,2013-02-05 22:42:00,
2013-02-05 14:52:00,50.0,45.0,-100.00,South,191,5.0,7.0,83,0.00,,,0.00,322.000000,,2013-02-05 22:52:00,
2013-02-05 15:01:00,50.0,45.0,-100.00,South,191,5.0,7.0,83,0.00,,,0.00,322.000000,,2013-02-05 23:01:00,
2013-02-05 15:11:00,50.0,45.0,-100.00,South,191,5.0,7.0,83,0.00,,,0.00,322.000000,,2013-02-05 23:11:00,
2013-02-05 15:32:00,51.0,46.0,-100.00,SSW,206,4.0,6.0,82,0.00,,,0.00,202.000000,,2013-02-05 23:32:00,
2013-02-05 15:42:00,51.0,46.0,-100.00,SSW,206,4.0,6.0,82,0.00,,,0.00,202.000000,,2013-02-05 23:42:00,
2013-02-05 15:52:00,51.0,46.0,-100.00,SSW,206,4.0,6.0,82,0.00,,,0.00,202.000000,,2013-02-05 23:52:00,
2013-02-05 16:01:00,51.0,46.0,-100.00,SSW,206,4.0,6.0,82,0.00,,,0.00,202.000000,,2013-02-06 00:01:00,
2013-02-05 16:11:00,51.0,46.0,-100.00,SSW,206,4.0,6.0,82,0.00,,,0.00,202.000000,,2013-02-06 00:11:00,
2013-02-05 16:32:00,53.0,46.0,-100.00,WSW,252,3.0,7.0,76,0.00,,,0.00,157.000000,,2013-02-06 00:32:00,
2013-02-05 16:42:00,53.0,46.0,-100.00,WSW,252,3.0,7.0,76,0.00,,,0.00,157.000000,,2013-02-06 00:42:00,
2013-02-05 16:52:00,53.0,46.0,-100.00,WSW,252,3.0,7.0,76,0.00,,,0.00,157.000000,,2013-02-06 00:52:00,
2013-02-05 17:01:00,53.0,46.0,-100.00,WSW,252,3.0,7.0,76,0.00,,,0.00,157.000000,,2013-02-06 01:01:00,
2013-02-05 17:11:00,53.0,46.0,-100.00,WSW,252,3.0,7.0,76,0.00,,,0.00,157.000000,,2013-02-06 01:11:00,
2013-02-05 17:32:00,52.0,46.0,-100.00,WNW,298,5.0,7.0,79,0.00,,,0.00,52.000000,,2013-02-06 01:32:00,
2013-02-05 17:42:00,52.0,46.0,-100.00,WNW,298,5.0,7.0,79,0.00,,,0.00,52.000000,,2013-02-06 01:42:00,
2013-02-05 17:53:00,52.0,46.0,-100.00,WNW,298,5.0,7.0,79,0.00,,,0.00,52.000000,,2013-02-06 01:53:00,
2013-02-05 18:01:00,52.0,46.0,-100.00,WNW,298,5.0,7.0,79,0.00,,,0.00,52.000000,,2013-02-06 02:01:00,
2013-02-05 18:11:00,52.0,46.0,-100.00,WNW,298,5.0,7.0,79,0.00,,,0.00,52.000000,,2013-02-06 02:11:00,
2013-02-05 18:42:00,51.0,46.0,-100.00,WNW,298,4.0,5.0,83,0.00,,,0.00,6.000000,,2013-02-06 02:42:00,
2013-02-05 18:52:00,51.0,46.0,-100.00,WNW,298,4.0,5.0,83,0.00,,,0.00,6.000000,,2013-02-06 02:52:00,
2013-02-05 19:02:00,51.0,46.0,-100.00,WNW,298,4.0,5.0,83,0.00,,,0.00,6.000000,,2013-02-06 03:02:00,
2013-02-05 19:11:00,51.0,46.0,-100.00,WNW,298,4.0,5.0,83,0.00,,,0.00,6.000000,,2013-02-06 03:11:00,
2013-02-05 19:32:00,51.0,48.0,-100.00,ESE,108,3.0,4.0,88,0.00,,,0.00,0.000000,,2013-02-06 03:32:00,
2013-02-05 19:42:00,51.0,48.0,-100.00,ESE,108,3.0,4.0,88,0.00,,,0.00,0.000000,,2013-02-06 03:42:00,
2013-02-05 19:52:00,51.0,48.0,-100.00,ESE,108,3.0,4.0,88,0.00,,,0.00,0.000000,,2013-02-06 03:52:00,
2013-02-05 20:01:00,51.0,48.0,-100.00,ESE,108,3.0,4.0,88,0.00,,,0.00,0.000000,,2013-02-06 04:01:00,
2013-02-05 20:11:00,51.0,48.0,-100.00,ESE,108,3.0,4.0,88,0.00,,,0.00,0.000000,,2013-02-06 04:11:00,
2013-02-05 20:42:00,50.0,48.0,-100.00,ENE,74,4.0,4.0,92,0.00,,,0.00,0.000000,,2013-02-06 04:42:00,
2013-02-05 20:52:00,50.0,48.0,-100.00,ENE,74,4.0,4.0,92,0.00,,,0.00,0.000000,,2013-02-06 04:52:00,
2013-02-05 21:01:00,50.0,48.0,-100.00,ENE,74,4.0,4.0,92,0.00,,,0.00,0.000000,,2013-02-06 05:01:00,
2013-02-05 21:12:00,50.0,48.0,-100.00,ENE,74,4.0,4.0,92,0.00,,,0.00,0.000000,,2013-02-06 05:12:00,
2013-02-05 21:42:00,50.0,47.0,-100.00,NE,46,3.0,3.0,91,0.00,,,0.00,0.000000,,2013-02-06 05:42:00,
2013-02-05 21:53:00,50.0,47.0,-100.00,NE,46,3.0,3.0,91,0.00,,,0.00,0.000000,,2013-02-06 05:53:00,
2013-02-05 22:01:00,50.0,47.0,-100.00,NE,46,3.0,3.0,91,0.00,,,0.00,0.000000,,2013-02-06 06:01:00,
2013-02-05 22:11:00,50.0,47.0,-100.00,NE,46,3.0,3.0,91,0.00,,,0.00,0.000000,,2013-02-06 06:11:00,
2013-02-05 22:32:00,49.0,48.0,-100.00,South,186,1.0,4.0,95,0.00,,,0.00,0.000000,,2013-02-06 06:32:00,
2013-02-05 22:42:00,49.0,48.0,-100.00,South,186,1.0,4.0,95,0.00,,,0.00,0.000000,,2013-02-06 06:42:00,
2013-02-05 22:52:00,49.0,48.0,-100.00,South,186,1.0,4.0,95,0.00,,,0.00,0.000000,,2013-02-06 06:52:00,
2013-02-05 23:01:00,49.0,48.0,-100.00,South,186,1.0,4.0,95,0.00,,,0.00,0.000000,,2013-02-06 07:01:00,
2013-02-05 23:11:00,49.0,48.0,-100.00,South,186,1.0,4.0,95,0.00,,,0.00,0.000000,,2013-02-06 07:11:00,
2013-02-05 23:32:00,49.0,46.0,-100.00,North,6,4.0,5.0,91,0.00,,,0.00,0.000000,,2013-02-06 07:32:00,
2013-02-05 23:42:00,49.0,46.0,-100.00,North,6,4.0,5.0,91,0.00,,,0.00,0.000000,,2013-02-06 07:42:00,
2013-02-05 23:52:00,49.0,46.0,-100.00,North,6,4.0,5.0,91,0.00,,,0.00,0.000000,,2013-02-06 07:52:00,